Time;durP1;ratioP1;P1;durP2;ratioP2;P2;SDS_P1;SDS_P2;PMS_P1;PMS_P2;Temp;Humidity;BMP_temperature;BMP_pressure;BME280_temperature;BME280_humidity;BME280_pressure;Samples;Min_cycle;Max_cycle;Signal;HPM_P1;HPM_P2
2021/06/19 00:00:11;;;;;;;28.05;8.32;;;;;;;19.76;100.00;95876.34;4353931;32;20253;-75
2021/06/19 00:02:36;;;;;;;31.42;8.77;;;;;;;19.74;100.00;95904.56;4365966;32;20648;-75
2021/06/19 00:05:02;;;;;;;24.17;8.40;;;;;;;19.51;100.00;95932.22;4368151;32;20262;-74
2021/06/19 00:07:27;;;;;;;17.83;7.27;;;;;;;19.51;100.00;95961.94;4367159;32;20286;-75
2021/06/19 00:09:53;;;;;;;24.33;7.83;;;;;;;19.49;100.00;95987.50;4368363;32;20337;-74
2021/06/19 00:12:20;;;;;;;24.55;8.18;;;;;;;19.57;100.00;96003.34;4367523;32;20341;-75
2021/06/19 00:14:45;;;;;;;31.50;8.73;;;;;;;19.59;100.00;96027.69;4368333;32;20218;-75
2021/06/19 00:17:11;;;;;;;19.90;7.67;;;;;;;19.59;100.00;96045.25;4367778;32;20736;-75
2021/06/19 00:19:37;;;;;;;18.90;7.73;;;;;;;19.64;100.00;96050.94;4367796;32;20645;-76
2021/06/19 00:22:03;;;;;;;19.37;7.83;;;;;;;19.71;100.00;96045.94;4367635;32;20286;-75
2021/06/19 00:24:28;;;;;;;20.57;7.27;;;;;;;19.91;100.00;96034.34;4367509;32;20272;-75
2021/06/19 00:26:55;;;;;;;23.23;7.10;;;;;;;19.95;100.00;96024.34;4367459;32;20266;-75
2021/06/19 00:29:22;;;;;;;13.60;6.55;;;;;;;19.93;100.00;96015.78;4367846;32;20334;-75
2021/06/19 00:31:47;;;;;;;16.00;6.72;;;;;;;19.92;100.00;96009.72;4367331;32;20287;-75
2021/06/19 00:34:13;;;;;;;17.33;6.97;;;;;;;19.99;100.00;95996.81;4353699;32;20731;-76
2021/06/19 00:36:38;;;;;;;23.38;6.65;;;;;;;19.88;100.00;95976.00;4367407;32;20261;-76
2021/06/19 00:39:05;;;;;;;14.87;6.33;;;;;;;19.81;100.00;95939.78;4367489;32;20223;-75
2021/06/19 00:41:31;;;;;;;21.58;7.03;;;;;;;19.86;100.00;95930.63;4370521;32;20223;-74
2021/06/19 00:43:56;;;;;;;20.37;6.93;;;;;;;19.56;100.00;95922.91;4372060;32;20293;-74
2021/06/19 00:46:23;;;;;;;22.80;7.55;;;;;;;18.97;100.00;95913.66;4357462;32;20253;-74
2021/06/19 00:48:48;;;;;;;22.63;7.70;;;;;;;18.88;100.00;95893.56;4371356;32;20219;-74
2021/06/19 00:51:14;;;;;;;22.57;7.73;;;;;;;18.74;100.00;95886.97;4372611;32;20242;-74
2021/06/19 00:53:39;;;;;;;18.30;8.13;;;;;;;18.51;100.00;95869.91;4371975;32;20235;-74
2021/06/19 00:56:04;;;;;;;20.10;7.77;;;;;;;18.42;100.00;95868.13;4372004;32;20314;-74
2021/06/19 00:58:32;;;;;;;17.13;7.33;;;;;;;18.41;100.00;95864.66;4371491;32;20211;-74
2021/06/19 01:00:57;;;;;;;22.17;8.25;;;;;;;18.64;100.00;95862.53;4372446;32;20241;-74
2021/06/19 01:03:24;;;;;;;15.03;7.27;;;;;;;18.83;100.00;95864.28;4372126;32;20219;-74
2021/06/19 01:05:50;;;;;;;18.85;7.80;;;;;;;18.91;100.00;95871.41;4367847;32;20290;-74
2021/06/19 01:08:16;;;;;;;20.88;7.05;;;;;;;19.07;100.00;95861.13;4371093;32;20265;-74
2021/06/19 01:10:41;;;;;;;16.37;7.30;;;;;;;19.19;100.00;95852.09;4372161;32;20234;-74
2021/06/19 01:13:07;;;;;;;14.60;6.87;;;;;;;19.29;100.00;95846.78;4358358;32;20254;-74
2021/06/19 01:15:32;;;;;;;16.33;6.87;;;;;;;19.44;100.00;95839.22;4371763;32;20310;-74
2021/06/19 01:17:58;;;;;;;16.27;7.00;;;;;;;19.63;100.00;95848.78;4357036;32;20269;-74
2021/06/19 01:20:25;;;;;;;18.60;7.20;;;;;;;19.70;100.00;95845.41;4367442;32;20685;-74
2021/06/19 01:22:53;;;;;;;16.33;6.80;;;;;;;19.79;100.00;95846.28;4366825;32;20273;-74
2021/06/19 01:25:22;;;;;;;16.77;6.82;;;;;;;19.87;100.00;95854.25;4367214;32;20694;-74
2021/06/19 01:27:49;;;;;;;13.43;6.85;;;;;;;19.85;100.00;95858.03;4367294;32;20260;-74
2021/06/19 01:30:16;;;;;;;18.85;7.10;;;;;;;19.86;100.00;95860.47;4367209;32;20250;-74
2021/06/19 01:32:41;;;;;;;18.23;7.03;;;;;;;19.85;100.00;95864.09;4368418;32;20253;-74
2021/06/19 01:35:09;;;;;;;18.57;7.37;;;;;;;19.83;100.00;95863.41;4367676;32;20274;-74
2021/06/19 01:37:35;;;;;;;12.40;7.30;;;;;;;19.70;100.00;95869.06;4366692;32;20263;-74
2021/06/19 01:40:06;;;;;;;12.45;6.35;;;;;;;19.80;100.00;95855.81;4366180;32;20293;-74
2021/06/19 01:42:34;;;;;;;15.50;7.30;;;;;;;19.89;100.00;95854.94;4366682;32;20294;-74
2021/06/19 01:44:59;;;;;;;21.70;7.47;;;;;;;19.86;100.00;95849.97;4366681;32;20317;-74
2021/06/19 01:47:27;;;;;;;15.90;7.10;;;;;;;19.70;100.00;95845.41;4368041;32;20567;-74
2021/06/19 01:49:52;;;;;;;22.10;6.95;;;;;;;19.76;100.00;95846.59;4367348;32;20314;-74
2021/06/19 01:52:18;;;;;;;15.02;7.20;;;;;;;19.71;100.00;95841.78;4366473;32;20223;-74
2021/06/19 01:54:44;;;;;;;18.67;7.10;;;;;;;19.69;100.00;95838.50;4366682;32;20279;-74
2021/06/19 01:57:09;;;;;;;15.67;6.47;;;;;;;19.65;100.00;95836.31;4366636;32;20671;-74
2021/06/19 01:59:36;;;;;;;14.68;6.40;;;;;;;19.77;100.00;95835.12;4353564;32;20303;-74
2021/06/19 02:02:03;;;;;;;21.65;7.18;;;;;;;19.83;100.00;95829.25;4352732;32;20305;-74
2021/06/19 02:04:31;;;;;;;15.55;6.97;;;;;;;19.83;100.00;95823.97;4366642;32;20219;-75
2021/06/19 02:06:56;;;;;;;17.83;6.93;;;;;;;19.90;100.00;95819.78;4365845;32;20227;-74
2021/06/19 02:09:22;;;;;;;15.40;6.70;;;;;;;19.95;100.00;95819.31;4368563;32;20583;-74
2021/06/19 02:11:47;;;;;;;17.93;7.23;;;;;;;19.95;100.00;95819.31;4369122;32;20702;-74
2021/06/19 02:14:13;;;;;;;15.00;7.00;;;;;;;19.96;100.00;95819.16;4369384;32;20286;-75
2021/06/19 02:16:40;;;;;;;17.27;7.30;;;;;;;19.92;100.00;95815.19;4369434;32;20219;-75
2021/06/19 02:19:05;;;;;;;17.70;6.55;;;;;;;19.81;100.00;95812.81;4369712;32;20328;-74
2021/06/19 02:21:31;;;;;;;15.85;7.10;;;;;;;19.76;100.00;95805.41;4369884;32;20429;-75
2021/06/19 02:23:57;;;;;;;17.90;7.25;;;;;;;19.77;100.00;95799.16;4369174;32;20238;-74
2021/06/19 02:26:22;;;;;;;13.27;6.90;;;;;;;19.75;100.00;95800.28;4369682;32;20219;-75
2021/06/19 02:28:47;;;;;;;21.80;7.20;;;;;;;19.77;100.00;95799.16;4369930;32;20732;-75
2021/06/19 02:31:14;;;;;;;18.97;6.93;;;;;;;19.69;100.00;95796.47;4369741;32;20274;-75
2021/06/19 02:33:40;;;;;;;15.90;7.00;;;;;;;19.62;100.00;95810.34;4368151;32;20320;-75
2021/06/19 02:36:06;;;;;;;20.83;7.85;;;;;;;19.48;100.00;95812.50;4369636;32;20676;-76
2021/06/19 02:38:32;;;;;;;21.52;7.50;;;;;;;19.50;100.00;95818.41;4369122;32;20271;-75
2021/06/19 02:40:57;;;;;;;16.42;7.32;;;;;;;19.45;100.00;95823.28;4368991;32;20974;-76
2021/06/19 02:43:23;;;;;;;17.30;7.77;;;;;;;19.33;100.00;95822.69;4370075;32;20820;-76
2021/06/19 02:45:50;;;;;;;13.27;6.93;;;;;;;19.31;100.00;95829.88;4355683;32;20257;-74
2021/06/19 02:48:15;;;;;;;14.02;7.55;;;;;;;19.29;100.00;95831.03;4369613;32;20271;-75
2021/06/19 02:50:43;;;;;;;14.68;7.80;;;;;;;19.25;100.00;95842.81;4369319;32;20325;-74
2021/06/19 02:53:11;;;;;;;14.30;7.33;;;;;;;19.04;100.00;95837.81;4355186;32;20325;-74
2021/06/19 02:55:38;;;;;;;13.38;7.10;;;;;;;19.08;100.00;95844.41;4354897;32;20266;-74
2021/06/19 02:58:07;;;;;;;18.17;7.62;;;;;;;19.01;100.00;95849.41;4366984;32;20369;-74
2021/06/19 03:00:32;;;;;;;16.23;7.93;;;;;;;18.96;100.00;95848.22;4369863;32;20271;-74
2021/06/19 03:02:59;;;;;;;15.02;7.05;;;;;;;19.06;100.00;95846.37;4356259;32;20223;-75
2021/06/19 03:05:26;;;;;;;13.98;7.68;;;;;;;19.09;100.00;95849.50;4369932;32;20227;-75
2021/06/19 03:07:54;;;;;;;11.57;6.80;;;;;;;19.12;100.00;95850.19;4367492;32;20236;-75
2021/06/19 03:10:21;;;;;;;17.17;7.40;;;;;;;19.17;100.00;95851.41;4369017;32;20286;-74
2021/06/19 03:12:47;;;;;;;18.85;7.12;;;;;;;19.15;100.00;95850.72;4368671;32;20235;-75
2021/06/19 03:15:13;;;;;;;13.85;7.20;;;;;;;19.21;100.00;95852.78;4368181;32;20241;-74
2021/06/19 03:17:39;;;;;;;14.65;7.32;;;;;;;19.22;100.00;95851.78;4368462;32;20247;-74
2021/06/19 03:20:07;;;;;;;11.88;6.78;;;;;;;19.26;100.00;95849.69;4368439;32;20227;-75
2021/06/19 03:22:40;;;;;;;18.80;7.80;;;;;;;19.27;100.00;95848.72;4369081;32;20291;-75
2021/06/19 03:25:08;;;;;;;14.07;7.07;;;;;;;19.33;100.00;95846.31;4368769;32;20329;-74
2021/06/19 03:27:33;;;;;;;14.95;7.57;;;;;;;19.42;100.00;95857.72;4368511;32;20292;-74
2021/06/19 03:29:59;;;;;;;14.10;7.13;;;;;;;19.43;100.00;95853.31;4368468;32;20636;-74
2021/06/19 03:32:24;;;;;;;10.93;7.07;;;;;;;19.45;100.00;95852.19;4354633;32;20267;-74
2021/06/19 03:34:49;;;;;;;14.82;6.72;;;;;;;19.49;100.00;95850.09;4355392;32;20223;-74
2021/06/19 03:37:15;;;;;;;21.50;8.23;;;;;;;19.57;100.00;95858.03;4368514;32;20540;-74
2021/06/19 03:39:40;;;;;;;12.85;7.28;;;;;;;19.55;100.00;95860.00;4368312;32;20273;-74
2021/06/19 03:42:07;;;;;;;15.67;7.13;;;;;;;19.49;100.00;95869.31;4369479;32;20305;-74
2021/06/19 03:44:33;;;;;;;10.52;7.22;;;;;;;19.42;100.00;95867.41;4368401;32;20301;-75
2021/06/19 03:46:58;;;;;;;12.03;6.83;;;;;;;19.48;100.00;95872.91;4367884;32;20267;-74
2021/06/19 03:49:25;;;;;;;14.87;7.03;;;;;;;19.55;100.00;95871.34;4354082;32;20677;-74
2021/06/19 03:51:50;;;;;;;12.77;7.10;;;;;;;19.62;100.00;95873.38;4367918;32;20266;-74
2021/06/19 03:54:16;;;;;;;11.80;7.17;;;;;;;19.63;100.00;95888.19;4367990;32;20627;-74
2021/06/19 03:56:42;;;;;;;22.50;7.47;;;;;;;19.67;100.00;95879.84;4354016;32;20329;-74
2021/06/19 03:59:09;;;;;;;13.23;7.12;;;;;;;19.67;100.00;95884.28;4371432;32;20584;-74
2021/06/19 04:01:34;;;;;;;11.80;7.10;;;;;;;19.62;100.00;95884.75;4364801;32;20237;-74
2021/06/19 04:04:00;;;;;;;11.73;7.10;;;;;;;19.52;100.00;95887.41;4381104;32;20705;-74
2021/06/19 04:06:25;;;;;;;12.47;6.90;;;;;;;19.48;100.00;95893.94;4373459;32;20219;-74
2021/06/19 04:08:51;;;;;;;11.10;6.93;;;;;;;19.61;100.00;95892.72;4373660;32;20215;-74
2021/06/19 04:11:16;;;;;;;10.10;6.90;;;;;;;19.64;100.00;95892.47;4359522;32;20261;-74
2021/06/19 04:13:42;;;;;;;11.02;7.32;;;;;;;19.57;100.00;95890.41;4373892;32;20231;-74
2021/06/19 04:16:10;;;;;;;14.57;7.12;;;;;;;19.56;100.00;95896.62;4359429;32;20254;-74
2021/06/19 04:18:35;;;;;;;12.35;7.18;;;;;;;19.59;100.00;95898.13;4359735;32;20251;-74
2021/06/19 04:21:00;;;;;;;12.33;7.23;;;;;;;19.57;100.00;95895.66;4373433;32;20227;-74
2021/06/19 04:23:26;;;;;;;14.93;7.32;;;;;;;19.54;100.00;95903.00;4373329;32;20248;-74
2021/06/19 04:25:51;;;;;;;14.77;7.07;;;;;;;19.56;100.00;95906.31;4373656;32;20215;-74
2021/06/19 04:28:16;;;;;;;10.93;7.10;;;;;;;19.64;100.00;95906.44;4374375;32;20235;-74
2021/06/19 04:30:42;;;;;;;10.60;7.20;;;;;;;19.65;100.00;95908.06;4373169;32;20277;-74
2021/06/19 04:33:09;;;;;;;13.10;7.00;;;;;;;19.58;100.00;95912.25;4359468;32;20247;-75
2021/06/19 04:35:34;;;;;;;13.65;7.43;;;;;;;19.39;100.00;95918.44;4373099;32;20219;-74
2021/06/19 04:37:59;;;;;;;11.47;7.47;;;;;;;19.47;100.00;95913.28;4373424;32;20618;-74
2021/06/19 04:43:11;;;;;;;14.25;7.82;;;;;;;19.54;100.00;95918.75;4372721;32;20287;-74
2021/06/19 04:45:37;;;;;;;21.20;7.87;;;;;;;19.54;100.00;95913.50;4372737;32;20216;-74
2021/06/19 04:48:05;;;;;;;13.45;7.22;;;;;;;19.59;100.00;95921.78;4373235;32;20611;-74
2021/06/19 04:50:33;;;;;;;13.10;7.45;;;;;;;19.57;100.00;95919.28;4359284;32;20224;-74
2021/06/19 04:52:59;;;;;;;12.47;7.50;;;;;;;19.59;100.00;95917.34;4372627;32;20257;-74
2021/06/19 04:55:25;;;;;;;16.65;7.65;;;;;;;19.71;100.00;95917.16;4372595;32;20321;-74
2021/06/19 04:57:55;;;;;;;11.85;7.40;;;;;;;19.83;100.00;95929.09;4373044;32;20298;-74
2021/06/19 05:00:20;;;;;;;12.95;7.45;;;;;;;19.91;100.00;95937.09;4372669;32;20335;-74
2021/06/19 05:02:47;;;;;;;9.20;7.07;;;;;;;19.97;100.00;95941.75;4372498;32;20243;-74
2021/06/19 05:05:13;;;;;;;15.73;7.45;;;;;;;19.91;100.00;95938.87;4372185;32;20258;-74
2021/06/19 05:07:40;;;;;;;13.98;7.43;;;;;;;20.00;100.00;95941.44;4372738;32;20312;-74
2021/06/19 05:10:07;;;;;;;13.68;6.80;;;;;;;20.19;100.00;95945.72;4358969;32;20219;-74
2021/06/19 05:12:34;;;;;;;16.90;7.72;;;;;;;20.43;100.00;95952.16;4372543;32;20253;-74
2021/06/19 05:15:00;;;;;;;11.60;7.37;;;;;;;20.72;100.00;95951.91;4372532;32;20395;-74
2021/06/19 05:17:26;;;;;;;16.37;7.33;;;;;;;20.63;100.00;95956.28;4372718;32;20607;-74
2021/06/19 05:19:51;;;;;;;14.75;7.30;;;;;;;20.86;100.00;95953.16;4372747;32;20249;-74
2021/06/19 05:22:17;;;;;;;13.00;7.20;;;;;;;21.11;100.00;95954.13;4372680;32;20231;-74
2021/06/19 05:24:43;;;;;;;12.07;7.95;;;;;;;21.22;100.00;95948.56;4372276;32;20227;-74
2021/06/19 05:27:09;;;;;;;14.57;7.87;;;;;;;21.28;100.00;95961.09;4371989;32;20258;-74
2021/06/19 05:29:36;;;;;;;13.33;7.67;;;;;;;21.59;100.00;95968.53;4372510;32;20619;-74
2021/06/19 05:32:01;;;;;;;12.15;7.18;;;;;;;21.70;100.00;95958.50;4372120;32;20318;-74
2021/06/19 05:34:28;;;;;;;17.55;7.70;;;;;;;21.58;100.00;95956.31;4376742;32;20535;-74
2021/06/19 05:36:53;;;;;;;14.55;7.60;;;;;;;21.58;97.41;95954.53;4378610;32;20227;-74
2021/06/19 05:39:19;;;;;;;19.10;7.73;;;;;;;21.62;95.94;95955.03;4376081;32;20264;-73
2021/06/19 05:41:45;;;;;;;12.50;7.72;;;;;;;21.46;96.97;95964.50;4375195;32;20622;-74
2021/06/19 05:44:11;;;;;;;13.50;7.80;;;;;;;21.09;100.00;95958.69;4376441;32;20722;-74
2021/06/19 05:46:37;;;;;;;11.97;8.20;;;;;;;20.92;100.00;95957.81;4390323;32;20229;-74
2021/06/19 05:49:03;;;;;;;13.60;8.20;;;;;;;21.21;100.00;95947.75;4381607;32;20636;-75
2021/06/19 05:51:29;;;;;;;17.92;7.28;;;;;;;21.32;100.00;95967.72;4374734;32;20929;-74
2021/06/19 05:53:55;;;;;;;14.27;8.33;;;;;;;21.47;100.00;95963.53;4375327;32;20280;-74
2021/06/19 05:56:20;;;;;;;13.05;8.35;;;;;;;21.66;100.00;95965.09;4360692;32;20330;-74
2021/06/19 05:58:47;;;;;;;17.27;8.50;;;;;;;21.88;100.00;95957.56;4375234;32;20632;-75
2021/06/19 06:01:12;;;;;;;15.47;8.43;;;;;;;22.10;97.93;95951.66;4384322;32;20821;-74
2021/06/19 06:03:38;;;;;;;17.80;7.93;;;;;;;22.08;97.67;95956.25;4389885;32;20217;-74
2021/06/19 06:06:04;;;;;;;13.75;7.45;;;;;;;21.93;96.82;95942.91;4380859;32;20261;-74
2021/06/19 06:08:29;;;;;;;14.23;8.40;;;;;;;21.71;99.86;95946.16;4378602;32;20226;-74
2021/06/19 06:10:54;;;;;;;13.47;8.63;;;;;;;21.80;100.00;95945.16;4381067;32;20211;-74
2021/06/19 06:13:20;;;;;;;14.37;8.40;;;;;;;21.81;100.00;95948.66;4369996;32;20225;-74
2021/06/19 06:15:47;;;;;;;12.10;8.55;;;;;;;21.80;100.00;95950.44;4361654;32;20224;-75
2021/06/19 06:18:12;;;;;;;15.65;8.77;;;;;;;21.71;100.00;95944.31;4374485;32;20286;-74
2021/06/19 06:20:38;;;;;;;16.63;8.50;;;;;;;22.01;100.00;95942.06;4372666;32;20780;-74
2021/06/19 06:23:03;;;;;;;11.85;7.62;;;;;;;22.19;100.00;95937.50;4372374;32;20239;-74
2021/06/19 06:25:29;;;;;;;15.93;8.20;;;;;;;22.12;100.00;95951.50;4363486;32;20250;-75
2021/06/19 06:27:54;;;;;;;16.83;8.50;;;;;;;22.15;100.00;95952.03;4359790;32;20224;-74
2021/06/19 06:30:20;;;;;;;10.40;7.70;;;;;;;22.02;99.92;95950.81;4359956;32;20294;-74
2021/06/19 06:32:47;;;;;;;17.40;8.52;;;;;;;21.94;100.00;95960.34;4373818;32;20235;-74
2021/06/19 06:35:14;;;;;;;12.25;8.35;;;;;;;21.84;100.00;95967.59;4371348;32;20226;-75
2021/06/19 06:37:40;;;;;;;12.77;8.80;;;;;;;21.75;100.00;95966.75;4373321;32;20269;-74
2021/06/19 06:40:08;;;;;;;13.45;8.05;;;;;;;21.84;100.00;95970.25;4369923;32;20240;-74
2021/06/19 06:42:34;;;;;;;13.27;9.27;;;;;;;21.67;99.70;95968.53;4389306;32;20222;-74
2021/06/19 06:44:59;;;;;;;13.23;8.20;;;;;;;21.54;100.00;95968.16;4380934;32;20280;-74
2021/06/19 06:47:24;;;;;;;13.27;8.17;;;;;;;21.43;100.00;95966.63;4372409;32;20233;-74
2021/06/19 06:49:51;;;;;;;14.23;8.63;;;;;;;21.52;100.00;95963.06;4360280;32;20330;-74
2021/06/19 06:52:17;;;;;;;20.12;8.95;;;;;;;21.45;100.00;95965.50;4373187;32;20223;-74
2021/06/19 06:54:42;;;;;;;18.27;8.73;;;;;;;21.37;100.00;95969.91;4373903;32;20242;-74
2021/06/19 06:57:09;;;;;;;14.63;8.43;;;;;;;21.73;100.00;95966.09;4374086;32;20227;-74
2021/06/19 06:59:35;;;;;;;14.05;8.45;;;;;;;22.16;100.00;95963.41;4373618;32;20231;-74
2021/06/19 07:02:00;;;;;;;13.17;8.33;;;;;;;22.59;100.00;95964.91;4364598;32;20253;-75
2021/06/19 07:04:26;;;;;;;13.20;9.23;;;;;;;22.79;99.51;95965.38;4374036;32;20257;-75
2021/06/19 07:06:53;;;;;;;16.97;8.23;;;;;;;23.26;100.00;95966.47;4373971;32;20277;-75
2021/06/19 07:09:18;;;;;;;16.40;8.35;;;;;;;23.61;100.00;95965.16;4372500;32;20302;-74
2021/06/19 07:11:43;;;;;;;13.47;8.13;;;;;;;23.98;96.98;95961.84;4365455;32;20227;-74
2021/06/19 07:14:09;;;;;;;14.33;7.67;;;;;;;24.30;93.96;95955.53;4367230;32;20248;-74
2021/06/19 07:16:34;;;;;;;18.10;7.70;;;;;;;24.60;92.59;95961.75;4373769;32;20359;-74
2021/06/19 07:19:00;;;;;;;17.00;8.43;;;;;;;24.85;89.77;95953.59;4371375;32;20286;-74
2021/06/19 07:21:25;;;;;;;16.17;7.73;;;;;;;24.84;84.82;95957.22;4364274;32;20241;-75
2021/06/19 07:23:52;;;;;;;17.62;8.65;;;;;;;25.09;85.89;95960.47;4361044;32;20963;-75
2021/06/19 07:26:18;;;;;;;16.27;7.28;;;;;;;24.85;84.72;95954.44;4374427;32;20227;-74
2021/06/19 07:28:45;;;;;;;13.43;7.47;;;;;;;25.42;79.08;95950.34;4373317;32;20276;-74
2021/06/19 07:31:10;;;;;;;24.05;8.18;;;;;;;25.41;82.03;95950.56;4364600;32;20292;-73
2021/06/19 07:33:36;;;;;;;9.93;6.90;;;;;;;25.55;82.05;95933.81;4365326;32;20671;-74
2021/06/19 07:36:03;;;;;;;20.50;7.40;;;;;;;25.57;80.78;95929.94;4370243;32;20355;-75
2021/06/19 07:38:30;;;;;;;13.43;7.00;;;;;;;25.57;79.31;95921.16;4369832;32;20257;-75
2021/06/19 07:40:57;;;;;;;16.80;7.87;;;;;;;25.59;75.73;95924.47;4358919;32;20300;-75
2021/06/19 07:43:23;;;;;;;14.93;7.95;;;;;;;25.62;77.65;95924.06;4363823;32;20243;-75
2021/06/19 07:45:48;;;;;;;15.02;7.60;;;;;;;25.59;77.63;95929.78;4373597;32;20543;-75
2021/06/19 07:48:14;;;;;;;15.75;7.50;;;;;;;25.34;78.98;95924.75;4374092;32;20265;-75
2021/06/19 07:50:40;;;;;;;10.75;7.32;;;;;;;25.54;77.53;95929.50;4373966;32;20285;-75
2021/06/19 07:53:06;;;;;;;20.95;8.20;;;;;;;25.53;76.81;95914.59;4373321;32;20224;-75
2021/06/19 07:55:31;;;;;;;13.52;7.62;;;;;;;25.33;76.47;95925.78;4373439;32;20250;-75
2021/06/19 07:57:59;;;;;;;12.30;7.73;;;;;;;25.13;75.84;95924.69;4373714;32;20649;-75
2021/06/19 08:00:25;;;;;;;12.88;7.25;;;;;;;25.16;77.90;95919.00;4367351;32;20228;-74
2021/06/19 08:02:50;;;;;;;15.48;7.57;;;;;;;25.31;77.46;95922.47;4360539;32;20280;-74
2021/06/19 08:05:16;;;;;;;16.87;7.50;;;;;;;25.47;77.42;95917.97;4360751;32;20623;-74
2021/06/19 08:07:41;;;;;;;14.43;7.63;;;;;;;25.64;75.76;95914.13;4359217;32;20602;-74
2021/06/19 08:10:09;;;;;;;18.65;8.43;;;;;;;26.00;74.38;95921.28;4367478;32;20283;-75
2021/06/19 08:12:35;;;;;;;16.40;7.37;;;;;;;25.92;70.87;95910.75;4355104;32;20253;-75
2021/06/19 08:15:05;;;;;;;17.40;6.90;;;;;;;26.20;75.85;95918.81;4367827;32;20999;-74
2021/06/19 08:17:31;;;;;;;11.43;7.47;;;;;;;26.40;73.09;95916.31;4369462;32;20306;-75
2021/06/19 08:19:56;;;;;;;14.83;7.60;;;;;;;26.51;70.78;95919.34;4368711;32;20622;-76
2021/06/19 08:22:21;;;;;;;12.57;6.67;;;;;;;26.53;69.80;95919.12;4372906;32;20286;-75
2021/06/19 08:24:47;;;;;;;16.40;7.17;;;;;;;26.41;70.46;95913.50;4357166;32;20291;-76
2021/06/19 08:27:13;;;;;;;11.93;7.93;;;;;;;26.61;70.86;95921.66;4372497;32;20329;-76
2021/06/19 08:29:39;;;;;;;14.30;7.83;;;;;;;26.49;70.12;95916.03;4372986;32;20249;-76
2021/06/19 08:32:08;;;;;;;12.73;7.93;;;;;;;26.53;74.22;95905.84;4371732;32;20781;-76
2021/06/19 08:34:34;;;;;;;13.70;7.47;;;;;;;26.57;70.29;95904.44;4376466;32;20675;-76
2021/06/19 08:36:59;;;;;;;15.80;7.83;;;;;;;26.60;72.12;95903.25;4373166;32;20263;-75
2021/06/19 08:39:24;;;;;;;16.80;7.80;;;;;;;26.69;70.28;95902.09;4371847;32;20250;-75
2021/06/19 08:41:54;;;;;;;18.57;8.03;;;;;;;26.50;70.81;95907.03;4378381;32;20258;-76
2021/06/19 08:44:21;;;;;;;10.70;7.47;;;;;;;26.53;72.04;95900.53;4373276;32;20215;-75
2021/06/19 08:46:47;;;;;;;12.63;8.30;;;;;;;26.68;69.64;95906.56;4384609;32;20545;-75
2021/06/19 08:49:15;;;;;;;19.17;7.85;;;;;;;26.65;74.29;95908.78;4369885;32;20329;-75
2021/06/19 08:51:41;;;;;;;15.48;7.53;;;;;;;26.69;65.16;95913.53;4375335;32;20291;-75
2021/06/19 08:54:06;;;;;;;16.17;7.68;;;;;;;26.39;67.65;95906.72;4375724;32;20252;-75
2021/06/19 08:56:32;;;;;;;14.50;7.15;;;;;;;26.97;69.58;95915.37;4371002;32;20265;-75
2021/06/19 08:58:57;;;;;;;15.23;7.27;;;;;;;27.43;67.79;95915.63;4364695;32;20263;-75
2021/06/19 09:01:23;;;;;;;14.07;7.43;;;;;;;27.76;63.86;95912.31;4370448;32;20665;-74
2021/06/19 09:03:48;;;;;;;23.65;7.43;;;;;;;27.85;70.25;95911.12;4357506;32;20395;-75
2021/06/19 09:06:25;;;;;;;19.30;7.47;;;;;;;28.32;64.66;95911.19;4357987;32;20213;-75
2021/06/19 09:09:01;;;;;;;22.73;7.53;;;;;;;28.19;64.33;95912.00;4364927;32;20303;-75
2021/06/19 09:11:28;;;;;;;12.65;7.40;;;;;;;27.64;64.58;95913.88;4357635;32;20244;-75
2021/06/19 09:13:58;;;;;;;14.55;7.68;;;;;;;27.58;65.11;95907.50;4368886;32;20656;-75
2021/06/19 09:16:23;;;;;;;15.82;7.22;;;;;;;27.80;69.21;95907.41;4355419;32;20276;-75
2021/06/19 09:18:48;;;;;;;13.60;7.00;;;;;;;27.98;62.47;95900.50;4357045;32;20604;-75
2021/06/19 09:21:14;;;;;;;18.53;7.30;;;;;;;28.20;61.48;95893.16;4364733;32;20249;-75
2021/06/19 09:23:43;;;;;;;10.83;6.67;;;;;;;28.40;62.73;95890.53;4371470;32;20258;-75
2021/06/19 09:26:15;;;;;;;14.52;7.00;;;;;;;28.27;62.11;95882.53;4369823;32;20662;-75
2021/06/19 09:29:09;;;;;;;16.92;6.85;;;;;;;28.25;59.27;95879.22;4360867;32;20252;-76
2021/06/19 09:31:40;;;;;;;15.13;6.47;;;;;;;28.45;61.63;95876.63;4355737;33;20633;-75
2021/06/19 09:34:08;;;;;;;15.00;6.78;;;;;;;28.61;59.90;95873.53;4357834;32;20229;-74
2021/06/19 09:36:38;;;;;;;17.65;7.47;;;;;;;28.51;59.43;95869.63;4367659;32;20277;-74
2021/06/19 09:39:07;;;;;;;13.95;6.97;;;;;;;28.55;62.67;95866.34;4369498;32;20594;-75
2021/06/19 09:41:34;;;;;;;14.40;7.10;;;;;;;28.57;64.98;95869.63;4363913;32;20215;-75
2021/06/19 09:44:00;;;;;;;14.55;7.90;;;;;;;28.55;62.25;95857.53;4376983;32;20237;-74
2021/06/19 09:46:25;;;;;;;12.87;7.40;;;;;;;28.15;62.18;95863.66;4371765;32;20230;-74
2021/06/19 09:48:51;;;;;;;15.40;7.17;;;;;;;28.13;61.72;95862.22;4370827;32;20227;-74
2021/06/19 09:51:18;;;;;;;11.10;7.00;;;;;;;28.07;61.45;95861.22;4371702;32;20243;-74
2021/06/19 09:53:45;;;;;;;14.05;6.65;;;;;;;28.05;63.81;95863.25;4371035;32;20234;-75
2021/06/19 09:56:13;;;;;;;16.70;6.90;;;;;;;28.09;60.49;95859.16;4371438;32;20219;-75
2021/06/19 09:58:41;;;;;;;19.25;7.03;;;;;;;28.25;60.94;95855.25;4372251;32;20223;-75
2021/06/19 10:01:07;;;;;;;14.82;6.97;;;;;;;28.07;62.17;95845.22;4372130;32;20258;-75
2021/06/19 10:03:49;;;;;;;15.15;6.93;;;;;;;27.98;62.63;95841.94;4371692;32;20253;-75
2021/06/19 10:06:15;;;;;;;20.42;6.93;;;;;;;28.14;62.86;95838.03;4371751;32;20310;-75
2021/06/19 10:08:43;;;;;;;18.13;6.90;;;;;;;27.90;61.70;95834.16;4357254;32;20215;-77
2021/06/19 10:11:08;;;;;;;16.87;6.78;;;;;;;28.02;61.72;95829.03;4371182;32;20231;-75
2021/06/19 10:13:36;;;;;;;21.70;7.05;;;;;;;27.83;63.19;95825.31;4369604;32;20258;-75
2021/06/19 10:16:02;;;;;;;14.90;6.95;;;;;;;27.81;62.51;95819.41;4372162;32;20231;-75
2021/06/19 10:18:30;;;;;;;18.45;6.78;;;;;;;28.14;63.77;95824.72;4372736;32;20247;-74
2021/06/19 10:20:55;;;;;;;17.48;7.18;;;;;;;28.42;63.64;95821.09;4359088;32;20281;-75
2021/06/19 10:23:21;;;;;;;17.75;6.82;;;;;;;28.43;61.03;95814.72;4370804;32;20235;-75
2021/06/19 10:25:48;;;;;;;19.77;6.68;;;;;;;28.39;59.77;95810.84;4371439;32;20249;-75
2021/06/19 10:28:15;;;;;;;12.55;5.97;;;;;;;28.66;58.31;95822.25;4369840;32;20235;-75
2021/06/19 10:30:42;;;;;;;13.77;5.95;;;;;;;28.75;57.39;95797.03;4373750;32;20227;-75
2021/06/19 10:33:29;;;;;;;17.25;6.20;;;;;;;28.91;56.76;95799.25;4374748;32;20691;-75
2021/06/19 10:35:56;;;;;;;14.77;6.03;;;;;;;28.65;56.99;95800.13;4358475;32;20266;-75
2021/06/19 10:38:22;;;;;;;15.13;6.12;;;;;;;28.85;59.76;95805.44;4360765;32;20305;-75
2021/06/19 10:40:52;;;;;;;11.43;5.53;;;;;;;29.04;52.91;95810.94;4375191;32;20223;-75
2021/06/19 10:43:18;;;;;;;13.00;6.12;;;;;;;29.39;55.38;95811.38;4375363;32;20300;-75
2021/06/19 10:45:46;;;;;;;16.23;5.87;;;;;;;29.57;52.86;95806.16;4378546;32;20315;-75
2021/06/19 10:48:12;;;;;;;15.45;6.07;;;;;;;29.20;57.66;95807.78;4380029;32;20664;-75
2021/06/19 10:50:40;;;;;;;11.20;5.60;;;;;;;29.29;54.18;95800.34;4363164;32;20230;-75
2021/06/19 10:53:08;;;;;;;17.93;6.30;;;;;;;28.97;56.66;95796.78;4383194;32;20328;-76
2021/06/19 10:55:35;;;;;;;17.17;6.55;;;;;;;28.59;56.40;95793.00;4365920;32;20603;-76
2021/06/19 10:58:18;;;;;;;16.42;6.62;;;;;;;28.35;56.63;95788.28;4380838;32;20215;-76
2021/06/19 11:00:47;;;;;;;16.87;6.50;;;;;;;28.66;56.07;95780.47;4374079;32;20226;-76
2021/06/19 11:03:14;;;;;;;16.35;6.25;;;;;;;28.84;53.19;95781.62;4373635;32;20992;-74
2021/06/19 11:05:56;;;;;;;27.92;5.80;;;;;;;29.28;55.68;95775.53;4373328;32;20272;-74
2021/06/19 11:08:22;;;;;;;14.55;5.93;;;;;;;29.43;52.01;95769.91;4359470;33;20279;-75
2021/06/19 11:10:59;;;;;;;18.33;6.35;;;;;;;29.81;53.83;95767.25;4350732;32;20239;-74
2021/06/19 11:13:44;;;;;;;17.15;5.72;;;;;;;29.81;50.41;95766.41;4374128;32;20227;-75
2021/06/19 11:16:48;;;;;;;21.92;6.03;;;;;;;29.78;46.72;95775.69;4374052;32;20619;-72
2021/06/19 11:19:39;;;;;;;16.50;5.50;;;;;;;29.73;50.24;95775.50;4369995;32;20552;-72